Time,TemperatureF,DewpointF,PressureIn,WindDirection,WindDirectionDegrees,WindSpeedMPH,WindSpeedGustMPH,Humidity,HourlyPrecipIn,Conditions,Clouds,dailyrainin,SoftwareType,DateUTC
2013-08-18 00:04:00,62.7,61.2,29.85,South,169,0.0,0.0,95,0.00,,,0.00,Wunderground v.1.15,2013-08-18 07:04:00,
2013-08-18 00:14:00,62.8,61.3,29.84,South,186,0.0,0.0,95,0.00,,,0.00,Wunderground v.1.15,2013-08-18 07:14:00,
2013-08-18 00:24:00,62.7,61.2,29.84,South,186,0.0,0.0,95,0.00,,,0.00,Wunderground v.1.15,2013-08-18 07:24:00,
2013-08-18 00:34:00,62.8,61.3,29.84,South,186,0.0,0.0,95,0.00,,,0.00,Wunderground v.1.15,2013-08-18 07:34:00,
2013-08-18 00:44:00,62.7,61.2,29.84,South,188,0.0,0.0,95,0.00,,,0.00,Wunderground v.1.15,2013-08-18 07:44:00,
2013-08-18 00:54:00,62.6,61.1,29.84,SW,234,0.0,0.0,95,0.00,,,0.00,Wunderground v.1.15,2013-08-18 07:54:00,
2013-08-18 01:04:00,62.6,61.1,29.84,WSW,240,0.0,0.0,95,0.00,,,0.00,Wunderground v.1.15,2013-08-18 08:04:00,
2013-08-18 01:14:00,62.6,61.1,29.84,WSW,240,0.0,0.0,95,0.00,,,0.00,Wunderground v.1.15,2013-08-18 08:14:00,
2013-08-18 01:24:00,62.7,61.2,29.84,WSW,240,0.0,0.0,95,0.00,,,0.00,Wunderground v.1.15,2013-08-18 08:24:00,
2013-08-18 01:34:00,62.7,61.2,29.84,WSW,240,0.0,0.0,95,0.00,,,0.00,Wunderground v.1.15,2013-08-18 08:34:00,
2013-08-18 01:44:00,62.7,61.2,29.83,WSW,240,0.0,0.0,95,0.00,,,0.00,Wunderground v.1.15,2013-08-18 08:44:00,
2013-08-18 01:54:00,62.7,60.9,29.83,WSW,240,0.0,0.0,94,0.00,,,0.00,Wunderground v.1.15,2013-08-18 08:54:00,
2013-08-18 02:04:00,62.6,60.8,29.83,WSW,240,0.0,0.0,94,0.00,,,0.00,Wunderground v.1.15,2013-08-18 09:04:00,
2013-08-18 02:14:00,62.5,61.0,29.82,WSW,240,0.0,0.0,95,0.00,,,0.00,Wunderground v.1.15,2013-08-18 09:14:00,
2013-08-18 02:24:00,62.5,61.0,29.82,WSW,249,0.0,0.0,95,0.00,,,0.00,Wunderground v.1.15,2013-08-18 09:24:00,
2013-08-18 02:34:00,62.5,61.0,29.82,WSW,249,0.0,0.0,95,0.00,,,0.00,Wunderground v.1.15,2013-08-18 09:34:00,
2013-08-18 02:44:00,62.5,61.0,29.82,WSW,249,0.0,0.0,95,0.00,,,0.00,Wunderground v.1.15,2013-08-18 09:44:00,
2013-08-18 02:54:00,62.5,61.0,29.82,WSW,249,0.0,0.0,95,0.00,,,0.00,Wunderground v.1.15,2013-08-18 09:54:00,
2013-08-18 03:04:00,62.5,61.0,29.81,WSW,249,0.0,0.0,95,0.00,,,0.00,Wunderground v.1.15,2013-08-18 10:04:00,
2013-08-18 03:14:00,62.5,61.0,29.81,WSW,249,0.0,0.0,95,0.00,,,0.00,Wunderground v.1.15,2013-08-18 10:14:00,
2013-08-18 03:24:00,62.4,60.9,29.81,WSW,249,0.0,0.0,95,0.00,,,0.00,Wunderground v.1.15,2013-08-18 10:24:00,
2013-08-18 03:34:00,62.3,60.8,29.81,WSW,252,0.0,0.0,95,0.00,,,0.00,Wunderground v.1.15,2013-08-18 10:34:00,
2013-08-18 03:44:00,62.3,60.8,29.81,NNW,345,0.0,0.0,95,0.00,,,0.00,Wunderground v.1.15,2013-08-18 10:44:00,
2013-08-18 03:54:00,62.2,60.8,29.81,NNW,346,0.0,0.0,95,0.00,,,0.00,Wunderground v.1.15,2013-08-18 10:54:00,
2013-08-18 04:04:00,62.2,60.8,29.81,NNW,346,0.0,0.0,95,0.00,,,0.00,Wunderground v.1.15,2013-08-18 11:04:00,
2013-08-18 04:14:00,62.2,60.8,29.81,NNW,346,0.0,0.0,95,0.00,,,0.00,Wunderground v.1.15,2013-08-18 11:14:00,
2013-08-18 04:24:00,62.2,60.8,29.81,NNW,346,0.0,0.0,95,0.00,,,0.00,Wunderground v.1.15,2013-08-18 11:24:00,
2013-08-18 04:34:00,62.3,60.8,29.82,WNW,298,0.0,0.0,95,0.00,,,0.00,Wunderground v.1.15,2013-08-18 11:34:00,
2013-08-18 04:44:00,62.4,60.9,29.82,West,274,0.0,0.0,95,0.00,,,0.00,Wunderground v.1.15,2013-08-18 11:44:00,
2013-08-18 04:54:00,62.4,60.9,29.82,SE,136,0.0,0.0,95,0.00,,,0.00,Wunderground v.1.15,2013-08-18 11:54:00,
2013-08-18 05:04:00,62.4,60.9,29.82,SE,136,0.0,0.0,95,0.00,,,0.00,Wunderground v.1.15,2013-08-18 12:04:00,
2013-08-18 05:14:00,62.4,60.9,29.83,SW,224,0.0,0.0,95,0.00,,,0.00,Wunderground v.1.15,2013-08-18 12:14:00,
2013-08-18 05:24:00,62.3,60.8,29.83,SSW,210,0.0,0.0,95,0.00,,,0.00,Wunderground v.1.15,2013-08-18 12:24:00,
2013-08-18 05:34:00,62.4,60.9,29.82,SSW,192,0.0,0.0,95,0.00,,,0.00,Wunderground v.1.15,2013-08-18 12:34:00,
2013-08-18 05:44:00,62.3,60.8,29.82,SSW,192,0.0,0.0,95,0.00,,,0.00,Wunderground v.1.15,2013-08-18 12:44:00,
2013-08-18 05:54:00,62.4,60.9,29.83,SW,217,0.0,0.0,95,0.00,,,0.00,Wunderground v.1.15,2013-08-18 12:54:00,
2013-08-18 06:04:00,62.4,60.9,29.82,SW,217,0.0,0.0,95,0.00,,,0.00,Wunderground v.1.15,2013-08-18 13:04:00,
2013-08-18 06:14:00,62.4,60.9,29.82,West,261,0.0,0.0,95,0.00,,,0.00,Wunderground v.1.15,2013-08-18 13:14:00,
2013-08-18 06:24:00,62.4,60.9,29.83,West,260,0.0,0.0,95,0.00,,,0.00,Wunderground v.1.15,2013-08-18 13:24:00,
2013-08-18 06:34:00,62.4,60.9,29.83,West,260,0.0,0.0,95,0.00,,,0.00,Wunderground v.1.15,2013-08-18 13:34:00,
2013-08-18 06:44:00,62.5,61.0,29.83,West,261,0.0,0.0,95,0.00,,,0.00,Wunderground v.1.15,2013-08-18 13:44:00,
2013-08-18 06:54:00,62.5,61.0,29.84,West,267,0.0,0.0,95,0.00,,,0.00,Wunderground v.1.15,2013-08-18 13:54:00,
2013-08-18 07:04:00,62.5,61.0,29.84,West,267,0.0,0.0,95,0.00,,,0.00,Wunderground v.1.15,2013-08-18 14:04:00,
2013-08-18 07:14:00,62.5,61.0,29.84,West,267,0.0,0.0,95,0.00,,,0.00,Wunderground v.1.15,2013-08-18 14:14:00,
2013-08-18 07:24:00,62.6,61.1,29.85,West,267,0.0,0.0,95,0.00,,,0.00,Wunderground v.1.15,2013-08-18 14:24:00,
2013-08-18 07:34:00,62.7,61.2,29.85,West,267,0.0,0.0,95,0.00,,,0.00,Wunderground v.1.15,2013-08-18 14:34:00,
2013-08-18 07:44:00,62.7,61.2,29.85,West,267,0.0,0.0,95,0.00,,,0.00,Wunderground v.1.15,2013-08-18 14:44:00,
2013-08-18 07:54:00,62.6,61.1,29.85,West,267,0.0,0.0,95,0.00,,,0.00,Wunderground v.1.15,2013-08-18 14:54:00,
2013-08-18 08:04:00,62.8,61.3,29.85,West,267,0.0,0.0,95,0.00,,,0.00,Wunderground v.1.15,2013-08-18 15:04:00,
2013-08-18 08:14:00,62.8,61.3,29.85,West,267,0.0,0.0,95,0.00,,,0.00,Wunderground v.1.15,2013-08-18 15:14:00,
2013-08-18 08:24:00,63.0,61.5,29.85,West,267,0.0,0.0,95,0.00,,,0.00,Wunderground v.1.15,2013-08-18 15:24:00,
2013-08-18 08:34:00,63.4,61.9,29.85,ENE,61,0.0,0.0,95,0.00,,,0.00,Wunderground v.1.15,2013-08-18 15:34:00,
2013-08-18 08:44:00,63.8,62.0,29.85,East,92,0.0,0.0,94,0.00,,,0.00,Wunderground v.1.15,2013-08-18 15:44:00,
2013-08-18 08:54:00,64.4,62.3,29.85,SSE,156,0.0,0.0,93,0.00,,,0.00,Wunderground v.1.15,2013-08-18 15:54:00,
2013-08-18 09:04:00,65.2,62.8,29.86,South,177,0.0,0.0,92,0.00,,,0.00,Wunderground v.1.15,2013-08-18 16:04:00,
2013-08-18 09:14:00,66.5,62.8,29.85,ENE,69,0.0,0.0,88,0.00,,,0.00,Wunderground v.1.15,2013-08-18 16:14:00,
2013-08-18 09:24:00,67.3,63.3,29.85,SSE,157,0.0,0.0,87,0.00,,,0.00,Wunderground v.1.15,2013-08-18 16:24:00,
2013-08-18 09:34:00,68.3,63.6,29.85,SW,217,0.0,0.0,85,0.00,,,0.00,Wunderground v.1.15,2013-08-18 16:34:00,
2013-08-18 09:44:00,67.9,63.2,29.85,South,175,1.0,1.0,85,0.00,,,0.00,Wunderground v.1.15,2013-08-18 16:44:00,
2013-08-18 09:54:00,68.0,63.7,29.86,South,180,0.0,0.0,86,0.00,,,0.00,Wunderground v.1.15,2013-08-18 16:54:00,
2013-08-18 10:04:00,68.0,63.7,29.85,South,189,1.0,1.0,86,0.00,,,0.00,Wunderground v.1.15,2013-08-18 17:04:00,
2013-08-18 10:14:00,68.7,63.7,29.85,SSW,196,0.0,0.0,84,0.00,,,0.00,Wunderground v.1.15,2013-08-18 17:14:00,
2013-08-18 10:24:00,68.7,63.7,29.86,SSW,205,1.0,3.0,84,0.00,,,0.00,Wunderground v.1.15,2013-08-18 17:24:00,
2013-08-18 10:34:00,68.7,63.7,29.86,SSW,196,2.0,2.0,84,0.00,,,0.00,Wunderground v.1.15,2013-08-18 17:34:00,
2013-08-18 10:44:00,68.3,63.3,29.86,SSW,200,1.0,1.0,84,0.00,,,0.00,Wunderground v.1.15,2013-08-18 17:44:00,
2013-08-18 10:54:00,68.3,63.9,29.86,SW,221,1.0,1.0,86,0.00,,,0.00,Wunderground v.1.15,2013-08-18 17:54:00,
2013-08-18 11:04:00,68.2,63.9,29.86,SW,223,1.0,1.0,86,0.00,,,0.00,Wunderground v.1.15,2013-08-18 18:04:00,
2013-08-18 11:14:00,68.5,63.8,29.86,WSW,252,0.0,0.0,85,0.00,,,0.00,Wunderground v.1.15,2013-08-18 18:14:00,
2013-08-18 11:24:00,68.3,63.6,29.86,West,269,1.0,1.0,85,0.00,,,0.00,Wunderground v.1.15,2013-08-18 18:24:00,
2013-08-18 11:34:00,68.3,64.3,29.86,West,263,1.0,1.0,87,0.00,,,0.00,Wunderground v.1.15,2013-08-18 18:34:00,
2013-08-18 11:44:00,68.6,63.9,29.86,SSW,206,0.0,0.0,85,0.00,,,0.00,Wunderground v.1.15,2013-08-18 18:44:00,
2013-08-18 11:54:00,68.7,63.7,29.86,SSW,202,0.0,4.0,84,0.00,,,0.00,Wunderground v.1.15,2013-08-18 18:54:00,
2013-08-18 12:04:00,67.7,63.4,29.86,WSW,251,1.0,1.0,86,0.00,,,0.00,Wunderground v.1.15,2013-08-18 19:04:00,
2013-08-18 12:14:00,68.0,63.7,29.86,SW,228,0.0,0.0,86,0.00,,,0.00,Wunderground v.1.15,2013-08-18 19:14:00,
2013-08-18 12:24:00,67.2,63.2,29.86,South,182,1.0,1.0,87,0.00,,,0.00,Wunderground v.1.15,2013-08-18 19:24:00,
2013-08-18 12:34:00,66.7,62.7,29.86,WSW,248,1.0,1.0,87,0.00,,,0.00,Wunderground v.1.15,2013-08-18 19:34:00,
2013-08-18 12:44:00,67.2,63.2,29.86,SW,215,0.0,0.0,87,0.00,,,0.00,Wunderground v.1.15,2013-08-18 19:44:00,
2013-08-18 12:54:00,66.9,62.9,29.86,SW,230,1.0,1.0,87,0.00,,,0.00,Wunderground v.1.15,2013-08-18 19:54:00,
2013-08-18 13:04:00,66.3,62.6,29.86,West,272,1.0,1.0,88,0.00,,,0.00,Wunderground v.1.15,2013-08-18 20:04:00,
2013-08-18 13:14:00,66.1,62.8,29.86,West,263,2.0,2.0,89,0.00,,,0.00,Wunderground v.1.15,2013-08-18 20:14:00,
2013-08-18 13:24:00,66.3,62.3,29.85,West,261,1.0,4.0,87,0.00,,,0.00,Wunderground v.1.15,2013-08-18 20:24:00,
2013-08-18 13:34:00,67.0,62.7,29.86,West,281,1.0,1.0,86,0.00,,,0.00,Wunderground v.1.15,2013-08-18 20:34:00,
2013-08-18 13:44:00,66.1,62.8,29.85,West,272,1.0,1.0,89,0.00,,,0.00,Wunderground v.1.15,2013-08-18 20:44:00,
2013-08-18 13:54:00,66.9,62.9,29.85,West,280,0.0,0.0,87,0.00,,,0.00,Wunderground v.1.15,2013-08-18 20:54:00,
2013-08-18 14:04:00,67.1,63.1,29.85,SW,236,0.0,6.0,87,0.00,,,0.00,Wunderground v.1.15,2013-08-18 21:04:00,
2013-08-18 14:14:00,67.7,62.7,29.85,SSW,203,1.0,1.0,84,0.00,,,0.00,Wunderground v.1.15,2013-08-18 21:14:00,
2013-08-18 14:24:00,68.4,63.4,29.85,SW,236,0.0,0.0,84,0.00,,,0.00,Wunderground v.1.15,2013-08-18 21:24:00,
2013-08-18 14:34:00,68.6,62.9,29.84,SW,217,1.0,1.0,82,0.00,,,0.00,Wunderground v.1.15,2013-08-18 21:34:00,
2013-08-18 14:44:00,68.1,62.7,29.84,South,182,1.0,1.0,83,0.00,,,0.00,Wunderground v.1.15,2013-08-18 21:44:00,
2013-08-18 14:54:00,68.7,63.0,29.84,South,190,1.0,1.0,82,0.00,,,0.00,Wunderground v.1.15,2013-08-18 21:54:00,
2013-08-18 15:04:00,68.1,62.7,29.84,South,184,2.0,5.0,83,0.00,,,0.00,Wunderground v.1.15,2013-08-18 22:04:00,
2013-08-18 15:14:00,67.8,62.4,29.83,South,186,1.0,1.0,83,0.00,,,0.00,Wunderground v.1.15,2013-08-18 22:14:00,
2013-08-18 15:24:00,68.0,62.6,29.83,WSW,246,1.0,1.0,83,0.00,,,0.00,Wunderground v.1.15,2013-08-18 22:24:00,
2013-08-18 15:34:00,68.4,62.7,29.83,WSW,258,1.0,1.0,82,0.00,,,0.00,Wunderground v.1.15,2013-08-18 22:34:00,
2013-08-18 15:44:00,68.5,62.8,29.83,SW,230,1.0,1.0,82,0.00,,,0.00,Wunderground v.1.15,2013-08-18 22:44:00,
2013-08-18 15:54:00,68.5,62.4,29.83,SSW,207,1.0,3.0,81,0.00,,,0.00,Wunderground v.1.15,2013-08-18 22:54:00,
2013-08-18 16:04:00,68.4,62.3,29.82,WSW,252,1.0,11.0,81,0.00,,,0.00,Wunderground v.1.15,2013-08-18 23:04:00,
2013-08-18 16:14:00,68.4,62.3,29.83,SSE,168,1.0,1.0,81,0.00,,,0.00,Wunderground v.1.15,2013-08-18 23:14:00,
2013-08-18 16:24:00,67.9,61.9,29.82,SSW,209,1.0,1.0,81,0.00,,,0.00,Wunderground v.1.15,2013-08-18 23:24:00,
2013-08-18 16:34:00,67.9,62.2,29.82,South,183,1.0,1.0,82,0.00,,,0.00,Wunderground v.1.15,2013-08-18 23:34:00,
2013-08-18 16:44:00,68.2,62.5,29.82,SW,227,1.0,5.0,82,0.00,,,0.00,Wunderground v.1.15,2013-08-18 23:44:00,
2013-08-18 16:54:00,68.1,62.4,29.82,SW,222,1.0,1.0,82,0.00,,,0.00,Wunderground v.1.15,2013-08-18 23:54:00,
2013-08-18 17:04:00,67.7,62.3,29.82,SW,228,2.0,2.0,83,0.00,,,0.00,Wunderground v.1.15,2013-08-19 00:04:00,
2013-08-18 17:14:00,68.0,62.6,29.82,South,169,0.0,0.0,83,0.00,,,0.00,Wunderground v.1.15,2013-08-19 00:14:00,
2013-08-18 17:24:00,68.0,62.3,29.82,South,180,1.0,1.0,82,0.00,,,0.00,Wunderground v.1.15,2013-08-19 00:24:00,
2013-08-18 17:34:00,67.7,62.3,29.82,SSW,202,0.0,0.0,83,0.00,,,0.00,Wunderground v.1.15,2013-08-19 00:34:00,
2013-08-18 17:44:00,67.6,62.3,29.82,South,186,1.0,8.0,83,0.00,,,0.00,Wunderground v.1.15,2013-08-19 00:44:00,
2013-08-18 17:54:00,67.2,62.2,29.82,South,180,1.0,1.0,84,0.00,,,0.00,Wunderground v.1.15,2013-08-19 00:54:00,
2013-08-18 18:04:00,67.0,62.3,29.82,SSW,196,0.0,7.0,85,0.00,,,0.00,Wunderground v.1.15,2013-08-19 01:04:00,
2013-08-18 18:14:00,66.6,61.9,29.82,SSW,199,0.0,0.0,85,0.00,,,0.00,Wunderground v.1.15,2013-08-19 01:14:00,
2013-08-18 18:24:00,66.2,61.9,29.83,SSW,198,0.0,0.0,86,0.00,,,0.00,Wunderground v.1.15,2013-08-19 01:24:00,
2013-08-18 18:34:00,65.9,61.9,29.83,SSW,210,0.0,0.0,87,0.00,,,0.00,Wunderground v.1.15,2013-08-19 01:34:00,
2013-08-18 18:44:00,65.8,61.8,29.83,SW,215,0.0,0.0,87,0.00,,,0.00,Wunderground v.1.15,2013-08-19 01:44:00,
2013-08-18 18:54:00,65.5,61.9,29.83,South,178,0.0,0.0,88,0.00,,,0.00,Wunderground v.1.15,2013-08-19 01:54:00,
2013-08-18 19:04:00,65.5,61.9,29.83,SW,220,0.0,8.0,88,0.00,,,0.00,Wunderground v.1.15,2013-08-19 02:04:00,
2013-08-18 19:14:00,65.4,62.1,29.83,SSW,212,0.0,0.0,89,0.00,,,0.00,Wunderground v.1.15,2013-08-19 02:14:00,
2013-08-18 19:24:00,65.2,61.9,29.84,SW,228,0.0,0.0,89,0.00,,,0.00,Wunderground v.1.15,2013-08-19 02:24:00,
2013-08-18 19:34:00,65.1,61.8,29.84,South,169,0.0,0.0,89,0.00,,,0.00,Wunderground v.1.15,2013-08-19 02:34:00,
2013-08-18 19:44:00,65.1,61.8,29.84,SSW,205,0.0,0.0,89,0.00,,,0.00,Wunderground v.1.15,2013-08-19 02:44:00,
2013-08-18 19:54:00,65.1,61.8,29.84,SW,218,0.0,0.0,89,0.00,,,0.00,Wunderground v.1.15,2013-08-19 02:54:00,
2013-08-18 20:04:00,65.0,61.7,29.84,South,189,0.0,4.0,89,0.00,,,0.00,Wunderground v.1.15,2013-08-19 03:04:00,
2013-08-18 20:14:00,65.1,61.8,29.84,SSW,192,0.0,0.0,89,0.00,,,0.00,Wunderground v.1.15,2013-08-19 03:14:00,
2013-08-18 20:24:00,65.2,61.9,29.85,SSE,150,0.0,0.0,89,0.00,,,0.00,Wunderground v.1.15,2013-08-19 03:24:00,
2013-08-18 20:34:00,65.2,62.2,29.85,SE,134,0.0,0.0,90,0.00,,,0.00,Wunderground v.1.15,2013-08-19 03:34:00,
2013-08-18 20:44:00,65.0,62.0,29.85,SSW,194,0.0,0.0,90,0.00,,,0.00,Wunderground v.1.15,2013-08-19 03:44:00,
2013-08-18 20:54:00,65.0,62.0,29.85,SSW,209,0.0,0.0,90,0.00,,,0.00,Wunderground v.1.15,2013-08-19 03:54:00,
2013-08-18 21:04:00,64.9,61.9,29.86,South,190,0.0,4.0,90,0.00,,,0.00,Wunderground v.1.15,2013-08-19 04:04:00,
2013-08-18 21:14:00,64.9,62.2,29.86,SSE,165,0.0,0.0,91,0.00,,,0.00,Wunderground v.1.15,2013-08-19 04:14:00,
2013-08-18 21:24:00,64.8,62.1,29.87,South,176,0.0,0.0,91,0.00,,,0.00,Wunderground v.1.15,2013-08-19 04:24:00,
2013-08-18 21:34:00,64.8,62.1,29.87,ESE,113,0.0,0.0,91,0.00,,,0.00,Wunderground v.1.15,2013-08-19 04:34:00,
2013-08-18 21:44:00,64.9,62.2,29.87,SSW,199,0.0,0.0,91,0.00,,,0.00,Wunderground v.1.15,2013-08-19 04:44:00,
2013-08-18 21:54:00,64.9,62.2,29.88,South,177,0.0,0.0,91,0.00,,,0.00,Wunderground v.1.15,2013-08-19 04:54:00,
2013-08-18 22:04:00,64.8,62.1,29.88,SSW,192,0.0,6.0,91,0.00,,,0.00,Wunderground v.1.15,2013-08-19 05:04:00,
2013-08-18 22:14:00,64.7,62.0,29.88,SSE,159,0.0,0.0,91,0.00,,,0.00,Wunderground v.1.15,2013-08-19 05:14:00,
2013-08-18 22:24:00,64.7,62.0,29.88,South,185,0.0,0.0,91,0.00,,,0.00,Wunderground v.1.15,2013-08-19 05:24:00,
2013-08-18 22:34:00,64.7,62.0,29.88,South,175,0.0,0.0,91,0.00,,,0.00,Wunderground v.1.15,2013-08-19 05:34:00,
2013-08-18 22:44:00,64.6,61.9,29.88,SW,223,0.0,0.0,91,0.00,,,0.00,Wunderground v.1.15,2013-08-19 05:44:00,
2013-08-18 22:54:00,64.5,61.8,29.88,SSW,201,0.0,0.0,91,0.00,,,0.00,Wunderground v.1.15,2013-08-19 05:54:00,
2013-08-18 23:04:00,64.4,61.7,29.88,South,169,0.0,6.0,91,0.00,,,0.00,Wunderground v.1.15,2013-08-19 06:04:00,
2013-08-18 23:14:00,64.4,61.7,29.88,SSE,167,0.0,0.0,91,0.00,,,0.00,Wunderground v.1.15,2013-08-19 06:14:00,
2013-08-18 23:24:00,64.4,62.0,29.89,SSW,194,0.0,0.0,92,0.00,,,0.00,Wunderground v.1.15,2013-08-19 06:24:00,
2013-08-18 23:34:00,64.3,61.9,29.89,SSW,194,0.0,0.0,92,0.00,,,0.00,Wunderground v.1.15,2013-08-19 06:34:00,
2013-08-18 23:44:00,64.1,61.4,29.89,SSE,158,0.0,0.0,91,0.00,,,0.00,Wunderground v.1.15,2013-08-19 06:44:00,
2013-08-18 23:54:00,64.2,61.8,29.89,SE,134,0.0,0.0,92,0.00,,,0.00,Wunderground v.1.15,2013-08-19 06:54:00,